createdAt,value
2023-03-06T00:01:37.926Z,935.2
2023-03-06T00:03:21.302Z,934
2023-03-06T00:05:04.683Z,935.2
2023-03-06T00:06:48.087Z,936.8
2023-03-06T00:08:31.486Z,938.5
2023-03-06T00:10:14.890Z,937.4
2023-03-06T00:11:58.265Z,938
2023-03-06T00:15:24.755Z,934.3
2023-03-06T00:17:08.149Z,939
2023-03-06T00:18:51.549Z,941.3
2023-03-06T00:20:34.955Z,944.8
2023-03-06T00:22:18.324Z,945.8
2023-03-06T00:24:01.753Z,946.2
2023-03-06T00:25:45.129Z,945.4
2023-03-06T00:27:28.534Z,944.7
2023-03-06T00:30:55.005Z,947.5
2023-03-06T00:32:38.381Z,947
2023-03-06T00:34:21.791Z,948
2023-03-06T00:36:05.174Z,951.6
2023-03-06T00:37:48.604Z,952.1
2023-03-06T00:39:31.960Z,952.7
2023-03-06T00:41:15.369Z,956.3
2023-03-06T00:42:58.773Z,959.5
2023-03-06T00:48:08.012Z,959.3
2023-03-06T00:49:51.435Z,961
2023-03-06T00:51:34.799Z,964.3
2023-03-06T00:53:18.256Z,966.8
2023-03-06T00:55:01.594Z,968.3
2023-03-06T00:56:45.052Z,974.4
2023-03-06T00:58:28.378Z,973.6
2023-03-06T01:00:11.762Z,976
2023-03-06T01:03:38.251Z,976.9
2023-03-06T01:05:21.670Z,977.7
2023-03-06T01:07:05.034Z,978.6
2023-03-06T01:08:48.471Z,979
2023-03-06T01:10:31.864Z,977.7
2023-03-06T01:12:15.332Z,977.7
2023-03-06T01:13:58.633Z,979.1
2023-03-06T01:15:42.047Z,980.6
2023-03-06T01:19:08.531Z,977.4
2023-03-06T01:20:52.096Z,977
2023-03-06T01:22:35.272Z,978
2023-03-06T01:24:18.676Z,976.6
2023-03-06T01:26:02.066Z,975.1
2023-03-06T01:27:45.546Z,971
2023-03-06T01:29:28.885Z,970
2023-03-06T01:31:12.275Z,969
2023-03-06T01:32:55.655Z,973.4
2023-03-06T01:34:39.361Z,973.7
2023-03-06T01:36:22.768Z,976
2023-03-06T01:38:06.150Z,978.1
2023-03-06T01:39:49.556Z,979
2023-03-06T01:41:33.180Z,976.4
2023-03-06T01:43:16.348Z,975.3
2023-03-06T01:44:59.733Z,977.1
2023-03-06T01:46:43.139Z,976.4
2023-03-06T01:51:52.387Z,963.3
2023-03-06T01:53:35.793Z,963.4
2023-03-06T01:55:19.163Z,966.6
2023-03-06T01:57:02.594Z,966.6
2023-03-06T01:58:46.006Z,968.2
2023-03-06T02:00:29.350Z,971
2023-03-06T02:02:12.750Z,969.3
2023-03-06T02:03:56.150Z,968.8
2023-03-06T02:07:22.622Z,966.4
2023-03-06T02:09:06.024Z,965.4
2023-03-06T02:10:49.444Z,968.2
2023-03-06T02:12:32.815Z,969.1
2023-03-06T02:14:16.209Z,965.8
2023-03-06T02:15:59.623Z,964
2023-03-06T02:17:43.012Z,964.3
2023-03-06T02:19:26.399Z,964.4
2023-03-06T02:21:10.128Z,965.5
2023-03-06T02:22:53.506Z,966.6
2023-03-06T02:24:36.938Z,970.1
2023-03-06T02:26:20.287Z,972.2
2023-03-06T02:28:03.698Z,972.2
2023-03-06T02:29:47.073Z,975.3
2023-03-06T02:31:30.474Z,977.8
2023-03-06T02:33:13.895Z,978.7
2023-03-06T02:36:40.346Z,979.1
2023-03-06T02:38:23.750Z,978.3
2023-03-06T02:40:07.159Z,976.8
2023-03-06T02:41:50.569Z,976.3
2023-03-06T02:43:33.944Z,977
2023-03-06T02:45:17.328Z,976
2023-03-06T02:47:00.755Z,976.7
2023-03-06T02:48:44.187Z,979.5
2023-03-06T02:52:10.583Z,983.4
2023-03-06T02:53:53.984Z,983
2023-03-06T02:55:37.382Z,984.2
2023-03-06T02:57:20.767Z,985.5
2023-03-06T02:59:04.185Z,987.1
2023-03-06T03:00:47.565Z,985
2023-03-06T03:02:30.961Z,985.5
2023-03-06T03:04:14.356Z,986.4
2023-03-06T03:05:58.079Z,989.1
2023-03-06T03:07:41.441Z,988.3
2023-03-06T03:09:24.850Z,989.3
2023-03-06T03:11:08.243Z,990.6
2023-03-06T03:12:51.682Z,987.3
2023-03-06T03:14:35.037Z,990.4
2023-03-06T03:16:18.531Z,993
2023-03-06T03:18:01.826Z,994.4
2023-03-06T03:23:11.076Z,998.4
2023-03-06T03:24:54.524Z,997.8
2023-03-06T03:26:37.902Z,995.6
2023-03-06T03:28:21.308Z,993.1
2023-03-06T03:30:04.669Z,990.5
2023-03-06T03:31:48.181Z,989.4
2023-03-06T03:33:31.464Z,988.3
2023-03-06T03:35:14.836Z,984.4
2023-03-06T03:38:41.363Z,995
2023-03-06T03:40:24.746Z,997.2
2023-03-06T03:42:08.121Z,997.2
2023-03-06T03:43:51.528Z,993.4
2023-03-06T03:45:34.966Z,989.7
2023-03-06T03:47:18.328Z,990.3
2023-03-06T03:49:01.704Z,993.5
2023-03-06T03:50:45.192Z,994.6
2023-03-06T03:55:54.378Z,989.3
2023-03-06T03:57:37.740Z,988.3
2023-03-06T03:59:21.133Z,991.8
2023-03-06T04:01:04.553Z,993.4
2023-03-06T04:02:47.975Z,993.3
2023-03-06T04:04:31.315Z,992
2023-03-06T04:06:14.786Z,986.1
2023-03-06T04:07:58.111Z,984
2023-03-06T04:11:24.572Z,981.7
2023-03-06T04:13:07.971Z,980.1
2023-03-06T04:14:51.376Z,976.2
2023-03-06T04:16:34.761Z,974
2023-03-06T04:18:18.160Z,971
2023-03-06T04:20:01.563Z,967.3
2023-03-06T04:21:44.956Z,969.2
2023-03-06T04:23:28.359Z,969.7
2023-03-06T04:26:54.823Z,970.3
2023-03-06T04:28:38.234Z,968.8
2023-03-06T04:30:21.652Z,969.2
2023-03-06T04:32:05.050Z,972.5
2023-03-06T04:33:48.441Z,976
2023-03-06T04:35:31.808Z,976.2
2023-03-06T04:37:15.332Z,978
2023-03-06T04:38:58.736Z,980.4
2023-03-06T04:42:25.069Z,976.6
2023-03-06T04:44:08.523Z,975.2
2023-03-06T04:45:51.860Z,974.6
2023-03-06T04:47:35.270Z,972.2
2023-03-06T04:49:18.734Z,975
2023-03-06T04:51:02.184Z,974.1
2023-03-06T04:52:45.449Z,973.4
2023-03-06T04:54:28.853Z,974
2023-03-06T04:56:12.549Z,973
2023-03-06T04:57:55.957Z,972.3
2023-03-06T04:59:39.347Z,973.1
2023-03-06T05:01:22.728Z,973.5
2023-03-06T05:03:06.197Z,973.1
2023-03-06T05:04:49.530Z,973.7
2023-03-06T05:06:32.918Z,972.6
2023-03-06T05:08:16.355Z,975
2023-03-06T05:11:42.809Z,978.1
2023-03-06T05:13:26.173Z,977.8
2023-03-06T05:15:09.586Z,978.5
2023-03-06T05:16:52.979Z,979.8
2023-03-06T05:18:36.374Z,980.3
2023-03-06T05:20:19.772Z,977.5
2023-03-06T05:22:03.161Z,978.2
2023-03-06T05:23:46.565Z,975.2
2023-03-06T05:25:30.267Z,971.5
2023-03-06T05:27:13.669Z,969.5
2023-03-06T05:28:57.062Z,966.8
2023-03-06T05:30:40.455Z,965.3
2023-03-06T05:32:23.843Z,965.7
2023-03-06T05:34:07.252Z,965.8
2023-03-06T05:35:50.646Z,968
2023-03-06T05:37:34.035Z,971.5
2023-03-06T05:41:00.513Z,969.9
2023-03-06T05:42:43.915Z,970
2023-03-06T05:44:27.292Z,967.1
2023-03-06T05:46:10.727Z,965.3
2023-03-06T05:47:54.119Z,965
2023-03-06T05:49:37.485Z,959.6
2023-03-06T05:51:20.884Z,956.4
2023-03-06T05:53:04.279Z,955.4
2023-03-06T05:56:30.769Z,951.7
2023-03-06T05:58:14.151Z,950.4
2023-03-06T05:59:57.540Z,949.2
2023-03-06T06:01:41.076Z,951
2023-03-06T06:03:24.334Z,951.1
2023-03-06T06:05:07.765Z,951.5
2023-03-06T06:06:51.127Z,953
2023-03-06T06:08:34.534Z,953.1
2023-03-06T06:10:18.232Z,955.5
2023-03-06T06:12:01.622Z,954.8
2023-03-06T06:13:45.063Z,954
2023-03-06T06:15:28.411Z,951.6
2023-03-06T06:17:11.820Z,951.5
2023-03-06T06:18:55.205Z,950.4
2023-03-06T06:20:38.593Z,949.1
2023-03-06T06:22:21.986Z,949.4
2023-03-06T06:25:48.464Z,950.9
2023-03-06T06:27:31.863Z,950
2023-03-06T06:29:15.277Z,950.2
2023-03-06T06:30:58.648Z,950.4
2023-03-06T06:32:42.065Z,949.8
2023-03-06T06:34:25.450Z,950.1
2023-03-06T06:36:08.856Z,951.4
2023-03-06T06:37:52.246Z,951.1
2023-03-06T06:41:18.704Z,951.6
2023-03-06T06:43:02.161Z,951
2023-03-06T06:44:45.638Z,950.3
2023-03-06T06:46:28.931Z,949.3
2023-03-06T06:48:12.488Z,946.3
2023-03-06T06:49:55.874Z,946.7
2023-03-06T06:51:39.317Z,946.5
2023-03-06T06:53:22.569Z,943.7
2023-03-06T06:56:48.958Z,941.1
2023-03-06T06:58:32.516Z,939.8
2023-03-06T07:00:15.988Z,936.3
2023-03-06T07:01:59.350Z,933.4
2023-03-06T07:03:42.555Z,933.7
2023-03-06T07:05:26.137Z,932.4
2023-03-06T07:07:09.522Z,931
2023-03-06T07:08:52.887Z,928.2
2023-03-06T07:12:19.377Z,926.2
2023-03-06T07:14:02.696Z,926.1
2023-03-06T07:15:46.199Z,926.7
2023-03-06T07:17:29.476Z,928.3
2023-03-06T07:19:12.948Z,927.8
2023-03-06T07:20:56.279Z,926.5
2023-03-06T07:22:39.659Z,926.2
2023-03-06T07:24:23.101Z,926.7
2023-03-06T07:26:06.777Z,927
2023-03-06T07:27:50.240Z,926.4
2023-03-06T07:29:33.651Z,927.4
2023-03-06T07:31:16.944Z,927.2
2023-03-06T07:33:00.465Z,924.6
2023-03-06T07:34:43.829Z,924
2023-03-06T07:36:27.290Z,923.1
2023-03-06T07:38:10.644Z,924.2
2023-03-06T07:41:36.984Z,917.6
2023-03-06T07:43:20.466Z,918.1
2023-03-06T07:45:03.788Z,928.3
2023-03-06T07:46:47.285Z,932
2023-03-06T07:48:30.653Z,935.3
2023-03-06T07:50:13.916Z,936.6
2023-03-06T07:51:57.466Z,939.3
2023-03-06T07:57:06.744Z,939.1
2023-03-06T07:58:50.126Z,936.6
2023-03-06T08:00:33.505Z,935.2
2023-03-06T08:02:16.908Z,936.1
2023-03-06T08:04:00.154Z,939
2023-03-06T08:05:43.642Z,947.1
2023-03-06T08:07:27.030Z,955.6
2023-03-06T08:10:53.573Z,982.8
2023-03-06T08:12:36.789Z,993.6
2023-03-06T08:14:20.351Z,990
2023-03-06T08:16:03.564Z,982.8
2023-03-06T08:17:47.071Z,981.6
2023-03-06T08:19:30.541Z,984.7
2023-03-06T08:21:13.972Z,984.5
2023-03-06T08:24:40.404Z,967.4
2023-03-06T08:26:23.735Z,961.6
2023-03-06T08:28:07.205Z,959.1
2023-03-06T08:29:50.566Z,961.7
2023-03-06T08:31:33.969Z,972.3
2023-03-06T08:33:17.393Z,980.6
2023-03-06T08:35:00.672Z,985.3
2023-03-06T08:36:44.236Z,980.7
2023-03-06T08:38:27.890Z,974.1
2023-03-06T08:40:11.268Z,969.1
2023-03-06T08:41:54.558Z,961.8
2023-03-06T08:43:38.019Z,957.7
2023-03-06T08:45:21.390Z,953.4
2023-03-06T08:47:04.844Z,951.2
2023-03-06T08:48:48.331Z,947.8
2023-03-06T08:50:31.669Z,947.2
2023-03-06T08:53:57.972Z,937.2
2023-03-06T08:55:41.396Z,934.6
2023-03-06T08:57:24.858Z,930.3
2023-03-06T08:59:08.286Z,927.1
2023-03-06T09:00:51.551Z,923
2023-03-06T09:02:34.952Z,920.3
2023-03-06T09:04:18.484Z,920.1
2023-03-06T09:06:01.837Z,919.4
2023-03-06T09:07:45.601Z,918.9
2023-03-06T09:09:28.884Z,919.1
2023-03-06T09:11:12.273Z,917.6
2023-03-06T09:12:55.685Z,915.8
2023-03-06T09:14:39.207Z,914.6
2023-03-06T09:16:22.421Z,913.1
2023-03-06T09:18:05.802Z,910
2023-03-06T09:19:49.248Z,906.2
2023-03-06T09:21:32.977Z,900.3
2023-03-06T09:23:16.323Z,898.3
2023-03-06T09:24:59.774Z,899.3
2023-03-06T09:26:43.105Z,899.2
2023-03-06T09:28:26.555Z,898.6
2023-03-06T09:30:09.950Z,895.6
2023-03-06T09:31:53.409Z,888.5
2023-03-06T09:33:36.801Z,882.6
2023-03-06T09:35:20.567Z,881.5
2023-03-06T09:37:03.801Z,882.3
2023-03-06T09:38:47.322Z,879.3
2023-03-06T09:40:30.725Z,876.6
2023-03-06T09:42:14.035Z,874.5
2023-03-06T09:43:57.466Z,873
2023-03-06T09:45:40.758Z,873
2023-03-06T09:47:24.160Z,872.4
2023-03-06T09:50:50.847Z,864.5
2023-03-06T09:52:34.028Z,861.1
2023-03-06T09:54:17.518Z,856.7
2023-03-06T09:56:00.931Z,854.1
2023-03-06T09:57:44.351Z,850.5
2023-03-06T09:59:27.608Z,845.4
2023-03-06T10:01:11.158Z,841.1
2023-03-06T10:02:54.410Z,836.8
2023-03-06T10:06:20.899Z,831.9
2023-03-06T10:08:04.277Z,831.5
2023-03-06T10:09:47.755Z,831.8
2023-03-06T10:11:31.074Z,831.1
2023-03-06T10:13:14.480Z,829.7
2023-03-06T10:14:58.020Z,828
2023-03-06T10:16:41.277Z,825.4
2023-03-06T10:18:24.653Z,822.2
2023-03-06T10:21:51.225Z,818.2
2023-03-06T10:23:34.601Z,817.2
2023-03-06T10:25:18.001Z,815.3
2023-03-06T10:27:01.323Z,812.5
2023-03-06T10:28:44.773Z,812.4
2023-03-06T10:30:28.191Z,814.6
2023-03-06T10:32:11.530Z,819.4
2023-03-06T10:33:54.989Z,828.1
2023-03-06T10:39:04.201Z,842.7
2023-03-06T10:40:47.637Z,843
2023-03-06T10:42:31.016Z,839.4
2023-03-06T10:44:14.374Z,838.4
2023-03-06T10:45:57.720Z,839.6
2023-03-06T10:47:41.239Z,841
2023-03-06T10:49:24.705Z,844.5
2023-03-06T10:51:07.973Z,846.3
2023-03-06T10:56:17.164Z,840.1
2023-03-06T10:58:00.596Z,837.7
2023-03-06T10:59:44.062Z,838
2023-03-06T11:01:27.351Z,837
2023-03-06T11:03:10.745Z,833.5
2023-03-06T11:04:54.269Z,831.5
2023-03-06T11:06:37.542Z,829.7
2023-03-06T11:08:21.099Z,826.5
2023-03-06T11:11:47.601Z,821.8
2023-03-06T11:13:30.898Z,820.4
2023-03-06T11:15:14.195Z,818.6
2023-03-06T11:16:57.695Z,817.7
2023-03-06T11:18:41.140Z,818.6
2023-03-06T11:20:24.428Z,823.1
2023-03-06T11:22:07.825Z,825.4
2023-03-06T11:23:51.250Z,826.2
2023-03-06T11:27:17.649Z,823.3
2023-03-06T11:29:01.038Z,827.7
2023-03-06T11:30:44.539Z,832.2
2023-03-06T11:32:27.824Z,835.6
2023-03-06T11:34:11.310Z,841.8
2023-03-06T11:35:54.747Z,846.3
2023-03-06T11:37:38.134Z,850.7
2023-03-06T11:39:21.633Z,860
2023-03-06T11:42:48.008Z,929.8
2023-03-06T11:44:31.368Z,920.8
2023-03-06T11:46:14.686Z,918.2
2023-03-06T11:47:58.219Z,914.4
2023-03-06T11:49:41.488Z,904.7
2023-03-06T11:51:24.977Z,903.8
2023-03-06T11:53:08.361Z,902.5
2023-03-06T11:54:51.665Z,901.8
2023-03-06T11:58:18.142Z,895.6
2023-03-06T12:00:01.536Z,897.7
2023-03-06T12:01:44.984Z,903.4
2023-03-06T12:03:28.314Z,903.1
2023-03-06T12:05:11.804Z,898.2
2023-03-06T12:06:55.131Z,892
2023-03-06T12:08:38.513Z,887.5
2023-03-06T12:10:21.899Z,882.1
2023-03-06T12:13:48.408Z,870.1
2023-03-06T12:15:31.794Z,864.5
2023-03-06T12:17:15.209Z,864
2023-03-06T12:18:58.582Z,868.2
2023-03-06T12:20:41.995Z,885
2023-03-06T12:22:25.370Z,888.1
2023-03-06T12:24:08.813Z,894.5
2023-03-06T12:25:52.170Z,900.2
2023-03-06T12:29:18.635Z,972.3
2023-03-06T12:31:02.020Z,975.6
2023-03-06T12:32:45.469Z,979.3
2023-03-06T12:34:28.869Z,980.2
2023-03-06T12:36:12.241Z,980.8
2023-03-06T12:37:55.617Z,976.7
2023-03-06T12:39:39.018Z,939.6
2023-03-06T12:41:22.437Z,915.1
2023-03-06T12:44:48.894Z,921.3
2023-03-06T12:46:32.301Z,919.3
2023-03-06T12:48:15.663Z,916.8
2023-03-06T12:49:59.139Z,913.4
2023-03-06T12:51:42.452Z,905.3
2023-03-06T12:53:25.857Z,900.7
2023-03-06T12:55:09.302Z,898.1
2023-03-06T12:56:52.659Z,892.5
2023-03-06T13:02:02.052Z,888.7
2023-03-06T13:03:45.456Z,890.6
2023-03-06T13:05:28.828Z,893.2
2023-03-06T13:07:12.157Z,896.5
2023-03-06T13:08:55.474Z,896.6
2023-03-06T13:10:38.935Z,892.8
2023-03-06T13:12:22.250Z,888.3
2023-03-06T13:14:05.737Z,885
2023-03-06T13:19:14.998Z,875.7
2023-03-06T13:20:58.461Z,875.5
2023-03-06T13:22:41.705Z,875.8
2023-03-06T13:24:25.129Z,875.2
2023-03-06T13:26:08.490Z,872.1
2023-03-06T13:27:51.878Z,871.4
2023-03-06T13:29:35.284Z,872.4
2023-03-06T13:31:18.684Z,874.1
2023-03-06T13:34:45.231Z,890.2
2023-03-06T13:36:28.670Z,902.7
2023-03-06T13:38:11.948Z,902.8
2023-03-06T13:39:55.388Z,906.2
2023-03-06T13:41:38.732Z,967.5
2023-03-06T13:43:22.282Z,1005.3
2023-03-06T13:45:05.509Z,992.7
2023-03-06T13:46:48.994Z,944
2023-03-06T13:50:15.395Z,949
2023-03-06T13:51:58.887Z,948.7
2023-03-06T13:53:42.417Z,956.2
2023-03-06T13:55:25.673Z,952.4
2023-03-06T13:57:08.983Z,956.3
2023-03-06T13:58:52.494Z,963.3
2023-03-06T14:00:35.777Z,968.8
2023-03-06T14:02:19.274Z,961.1
2023-03-06T14:05:45.682Z,939.5
2023-03-06T14:07:29.231Z,959
2023-03-06T14:09:12.517Z,997.1
2023-03-06T14:10:55.811Z,1021.4
2023-03-06T14:12:39.402Z,1020.6
2023-03-06T14:14:22.769Z,1024.5
2023-03-06T14:16:06.148Z,1027.6
2023-03-06T14:17:49.507Z,1030.5
2023-03-06T14:23:14.308Z,1049
2023-03-06T14:24:42.088Z,1058.7
2023-03-06T14:26:25.479Z,1060.5
2023-03-06T14:28:08.845Z,1062.1
2023-03-06T14:29:52.235Z,1061.2
2023-03-06T14:31:35.666Z,1058.4
2023-03-06T14:33:19.190Z,1056.4
2023-03-06T14:35:02.545Z,1053.4
2023-03-06T14:38:28.983Z,1056
2023-03-06T14:40:12.367Z,1056.3
2023-03-06T14:41:55.848Z,1053.7
2023-03-06T14:43:39.170Z,1053.2
2023-03-06T14:45:22.587Z,1052.8
2023-03-06T14:47:06.000Z,1053
2023-03-06T14:48:49.515Z,1050
2023-03-06T14:50:32.897Z,1049.3
2023-03-06T14:55:42.096Z,1050.8
2023-03-06T14:57:25.311Z,1047
2023-03-06T14:59:08.692Z,1043
2023-03-06T15:00:52.231Z,1033
2023-03-06T15:02:35.648Z,1024.8
2023-03-06T15:04:18.946Z,1011.7
2023-03-06T15:06:02.293Z,1003.3
2023-03-06T15:07:45.763Z,994.1
2023-03-06T15:12:54.919Z,970.7
2023-03-06T15:14:38.450Z,963.5
2023-03-06T15:16:21.728Z,961.2
2023-03-06T15:18:05.098Z,957.8
2023-03-06T15:19:48.511Z,957.5
2023-03-06T15:21:32.027Z,955.2
2023-03-06T15:23:15.290Z,954.2
2023-03-06T15:30:07.940Z,984.1
2023-03-06T15:31:51.469Z,986.5
2023-03-06T15:33:34.734Z,990.7
2023-03-06T15:35:18.277Z,994
2023-03-06T15:37:01.680Z,998.7
2023-03-06T15:38:45.138Z,1003.5
2023-03-06T15:40:28.363Z,1006.4
2023-03-06T15:42:11.880Z,1010.5
2023-03-06T15:47:20.962Z,1019.9
2023-03-06T15:49:04.512Z,1020.5
2023-03-06T15:50:47.842Z,1022.7
2023-03-06T15:52:31.134Z,1023.7
2023-03-06T15:54:14.578Z,1025.7
2023-03-06T15:55:57.938Z,1028.4
2023-03-06T15:57:41.472Z,1026.6
2023-03-06T15:59:24.727Z,1029
2023-03-06T16:02:51.357Z,1036.8
2023-03-06T16:04:34.776Z,1034
2023-03-06T16:06:17.985Z,1032.5
2023-03-06T16:08:01.552Z,1037.5
2023-03-06T16:09:44.914Z,1046.7
2023-03-06T16:11:28.326Z,1052.3
2023-03-06T16:13:11.653Z,1052.3
2023-03-06T16:14:55.155Z,1052.5
2023-03-06T16:20:04.224Z,1051.3
2023-03-06T16:21:47.607Z,1055.2
2023-03-06T16:23:31.135Z,1056.2
2023-03-06T16:25:14.397Z,1055.7
2023-03-06T16:26:57.896Z,1055.6
2023-03-06T16:28:41.183Z,1053.5
2023-03-06T16:30:24.604Z,1055.2
2023-03-06T16:32:08.032Z,1056.2
2023-03-06T16:35:34.573Z,1053.8
2023-03-06T16:37:18.038Z,1049.7
2023-03-06T16:39:01.370Z,1048.7
2023-03-06T16:40:44.745Z,1047.2
2023-03-06T16:42:28.031Z,1043
2023-03-06T16:44:11.483Z,1042.3
2023-03-06T16:45:54.838Z,1043.5
2023-03-06T16:47:38.323Z,1041.7
2023-03-06T16:51:04.812Z,1037
2023-03-06T16:52:48.097Z,1033.5
2023-03-06T16:54:31.603Z,1031.3
2023-03-06T16:56:14.883Z,1028.6
2023-03-06T17:03:08.495Z,1026.3
2023-03-06T17:08:17.853Z,1022
2023-03-06T17:10:01.143Z,1018.8
2023-03-06T17:11:44.529Z,1014.5
2023-03-06T17:13:27.931Z,1013.2
2023-03-06T17:15:11.323Z,1009.4
2023-03-06T17:16:54.739Z,1007.4
2023-03-06T17:18:38.094Z,1004.2
2023-03-06T17:20:21.484Z,999.5
2023-03-06T17:23:47.973Z,997.2
2023-03-06T17:25:31.415Z,993.5
2023-03-06T17:27:14.770Z,989.7
2023-03-06T17:28:58.194Z,991.4
2023-03-06T17:30:41.544Z,993.4
2023-03-06T17:32:24.975Z,994.6
2023-03-06T17:34:08.367Z,996.2
2023-03-06T17:35:51.732Z,999.7
2023-03-06T17:39:18.275Z,1008.3
2023-03-06T17:41:01.602Z,1020.2
2023-03-06T17:42:45.048Z,1026.5
2023-03-06T17:44:28.396Z,1023.8
2023-03-06T17:46:11.784Z,1028.3
2023-03-06T17:47:55.183Z,1033.6
2023-03-06T17:49:38.630Z,1035.2
2023-03-06T17:51:21.964Z,1038.4
2023-03-06T17:54:48.441Z,1040.3
2023-03-06T17:56:31.899Z,1042.6
2023-03-06T17:58:15.244Z,1041.6
2023-03-06T17:59:58.644Z,1038.2
2023-03-06T18:01:42.064Z,1038.5
2023-03-06T18:03:25.442Z,1042.2
2023-03-06T18:05:08.820Z,1043.2
2023-03-06T18:06:52.216Z,1039.4
2023-03-06T18:08:35.628Z,1041.2
2023-03-06T18:12:02.086Z,1043.6
2023-03-06T18:13:45.537Z,1048.4
2023-03-06T18:15:28.872Z,1050.6
2023-03-06T18:17:12.281Z,1052.4
2023-03-06T18:18:55.666Z,1052.4
2023-03-06T18:20:39.063Z,1052.1
2023-03-06T18:22:22.464Z,1051.4
2023-03-06T18:24:05.881Z,1053
2023-03-06T18:29:15.094Z,1067.8
2023-03-06T18:30:58.491Z,1070.5
2023-03-06T18:32:41.909Z,1078.8
2023-03-06T18:34:25.345Z,1086.6
2023-03-06T18:36:08.678Z,1091
2023-03-06T18:37:52.082Z,1093.1
2023-03-06T18:39:35.507Z,1093.8
2023-03-06T18:41:18.855Z,1093.3
2023-03-06T18:46:28.113Z,1092.7
2023-03-06T18:48:11.715Z,1097.3
2023-03-06T18:49:54.929Z,1098.6
2023-03-06T18:51:38.304Z,1097
2023-03-06T18:53:21.698Z,1098.2
2023-03-06T18:55:05.083Z,1101.8
2023-03-06T18:56:48.540Z,1101.3
2023-03-06T18:58:31.907Z,1102.6
2023-03-06T19:01:58.433Z,1097.2
2023-03-06T19:03:41.760Z,1098.1
2023-03-06T19:05:25.155Z,1102.1
2023-03-06T19:07:08.541Z,1104.4
2023-03-06T19:08:52.018Z,1105.1
2023-03-06T19:10:35.345Z,1106.3
2023-03-06T19:12:18.756Z,1106.3
2023-03-06T19:14:02.179Z,1107.1
2023-03-06T19:17:28.596Z,1108.6
2023-03-06T19:19:27.107Z,1109.4
2023-03-06T19:20:55.409Z,1107
2023-03-06T19:22:38.830Z,1103.5
2023-03-06T19:24:25.831Z,1106
2023-03-06T19:26:05.587Z,1107.5
2023-03-06T19:27:48.996Z,1106.5
2023-03-06T19:29:50.631Z,1102.1
2023-03-06T19:32:58.887Z,1100.3
2023-03-06T19:34:42.261Z,1100
2023-03-06T19:38:09.060Z,1100.1
2023-03-06T19:39:52.444Z,1101.8
2023-03-06T19:41:35.842Z,1105.3
2023-03-06T19:43:19.272Z,1104.4
2023-03-06T19:45:02.623Z,1102.4
2023-03-06T19:48:29.130Z,1099.7
2023-03-06T19:50:12.517Z,1093.6
2023-03-06T19:51:55.914Z,1093.8
2023-03-06T19:53:42.737Z,1094
2023-03-06T19:55:22.703Z,1093.8
2023-03-06T19:57:06.108Z,1090.2
2023-03-06T19:58:49.544Z,1088.8
2023-03-06T20:00:32.893Z,1093.1
2023-03-06T20:03:59.386Z,1092.6
2023-03-06T20:05:42.759Z,1092.2
2023-03-06T20:07:26.156Z,1093
2023-03-06T20:09:09.573Z,1096.3
2023-03-06T20:10:52.956Z,1096.7
2023-03-06T20:12:36.351Z,1095.1
2023-03-06T20:14:19.807Z,1095.3
2023-03-06T20:16:03.127Z,1091.7
2023-03-06T20:21:12.370Z,1096.7
2023-03-06T20:22:55.762Z,1097.7
2023-03-06T20:24:39.160Z,1103.1
2023-03-06T20:26:22.542Z,1105.8
2023-03-06T20:28:05.946Z,1109
2023-03-06T20:29:49.338Z,1107.3
2023-03-06T20:31:32.776Z,1109.2
2023-03-06T20:33:16.144Z,1109.5
2023-03-06T20:38:25.364Z,1102.4
2023-03-06T20:40:08.770Z,1099.3
2023-03-06T20:41:52.166Z,1101.1
2023-03-06T20:43:35.581Z,1101.3
2023-03-06T20:45:18.984Z,1102.3
2023-03-06T20:47:03.824Z,1107.2
2023-03-06T20:48:45.777Z,1110.8
2023-03-06T20:50:29.229Z,1118.2
2023-03-06T20:55:38.379Z,1127.5
2023-03-06T20:57:21.808Z,1126.8
2023-03-06T20:59:05.344Z,1126.3
2023-03-06T21:00:48.581Z,1120.8
2023-03-06T21:02:31.970Z,1121
2023-03-06T21:04:15.430Z,1136.7
2023-03-06T21:05:58.825Z,1138.3
2023-03-06T21:07:42.169Z,1132
2023-03-06T21:12:51.415Z,1102.6
2023-03-06T21:14:34.834Z,1097.7
2023-03-06T21:16:18.195Z,1096.3
2023-03-06T21:18:01.595Z,1095.5
2023-03-06T21:19:45.041Z,1093.2
2023-03-06T21:21:28.387Z,1094.2
2023-03-06T21:23:11.806Z,1089.8
2023-03-06T21:24:55.181Z,1084.8
2023-03-06T21:30:04.434Z,1070
2023-03-06T21:31:47.822Z,1066.4
2023-03-06T21:33:31.236Z,1065.6
2023-03-06T21:35:14.628Z,1061.7
2023-03-06T21:36:58.013Z,1059
2023-03-06T21:38:41.413Z,1060
2023-03-06T21:40:24.808Z,1059.5
2023-03-06T21:42:08.199Z,1054.1
2023-03-06T21:45:34.664Z,1047.7
2023-03-06T21:47:18.059Z,1046.1
2023-03-06T21:49:01.474Z,1045.1
2023-03-06T21:50:44.895Z,1043
2023-03-06T21:52:28.251Z,1039.6
2023-03-06T21:54:11.648Z,1039.7
2023-03-06T21:55:55.058Z,1040.3
2023-03-06T21:57:38.449Z,1036.1
2023-03-06T22:02:47.694Z,1035.2
2023-03-06T22:04:31.090Z,1031.6
2023-03-06T22:06:14.486Z,1028.5
2023-03-06T22:07:57.871Z,1030.4
2023-03-06T22:09:41.263Z,1027.3
2023-03-06T22:11:24.665Z,1027.6
2023-03-06T22:13:08.072Z,1025.5
2023-03-06T22:14:51.508Z,1025.2
2023-03-06T22:20:00.706Z,1013.1
2023-03-06T22:21:44.189Z,1012.1
2023-03-06T22:23:27.492Z,1011.1
2023-03-06T22:25:10.874Z,1010
2023-03-06T22:26:54.306Z,1008.6
2023-03-06T22:28:37.688Z,1007.3
2023-03-06T22:30:21.098Z,1005
2023-03-06T22:32:04.476Z,1005.7
2023-03-06T22:37:13.716Z,1007.4
2023-03-06T22:38:57.103Z,1008
2023-03-06T22:40:40.493Z,1004.3
2023-03-06T22:42:23.911Z,1000.3
2023-03-06T22:44:07.283Z,997.8
2023-03-06T22:45:50.685Z,996.2
2023-03-06T22:47:34.104Z,995
2023-03-06T22:49:17.486Z,992.5
2023-03-06T22:52:43.945Z,989
2023-03-06T22:54:27.396Z,985.5
2023-03-06T22:56:10.755Z,984.3
2023-03-06T22:57:54.154Z,982.7
2023-03-06T22:59:37.546Z,983
2023-03-06T23:01:20.929Z,981.3
2023-03-06T23:03:04.330Z,978.2
2023-03-06T23:04:47.725Z,978.7
2023-03-06T23:06:31.165Z,978.1
2023-03-06T23:09:57.611Z,971.9
2023-03-06T23:11:41.009Z,970.3
2023-03-06T23:13:24.408Z,970.1
2023-03-06T23:15:07.794Z,971.8
2023-03-06T23:16:51.187Z,975
2023-03-06T23:18:34.584Z,975.2
2023-03-06T23:20:17.983Z,973.4
2023-03-06T23:22:01.361Z,968.7
2023-03-06T23:23:44.810Z,967.3
2023-03-06T23:25:28.516Z,967.6
2023-03-06T23:27:11.861Z,968.8
2023-03-06T23:28:55.276Z,970.1
2023-03-06T23:30:38.657Z,969.5
2023-03-06T23:32:22.058Z,968.2
2023-03-06T23:34:05.463Z,965.3
2023-03-06T23:35:48.858Z,963.8
2023-03-06T23:37:32.254Z,962.3
2023-03-06T23:39:15.665Z,958.8
2023-03-06T23:40:59.378Z,958
2023-03-06T23:42:42.795Z,957.3
2023-03-06T23:44:26.135Z,957.1
2023-03-06T23:46:09.561Z,956.5
2023-03-06T23:47:52.938Z,955.5
2023-03-06T23:49:36.313Z,952.1
2023-03-06T23:51:19.742Z,949.7
2023-03-06T23:53:03.124Z,946.1
2023-03-06T23:54:46.512Z,949.8
2023-03-06T23:56:30.241Z,951.2
2023-03-06T23:58:13.616Z,951.8
2023-03-06T23:59:57.006Z,947.8
